sensor_id;sensor_type;location;lat;lon;timestamp;P1;durP1;ratioP1;P2;durP2;ratioP2
3875;SDS011;1953;51.222;6.624;2023-08-20T00:00:27;13.90;;;9.00;;
3875;SDS011;1953;51.222;6.624;2023-08-20T00:05:10;15.87;;;10.43;;
3875;SDS011;1953;51.222;6.624;2023-08-20T00:09:54;14.80;;;9.60;;
3875;SDS011;1953;51.222;6.624;2023-08-20T00:16:44;14.63;;;9.50;;
3875;SDS011;1953;51.222;6.624;2023-08-20T00:21:27;19.10;;;9.17;;
3875;SDS011;1953;51.222;6.624;2023-08-20T00:26:10;14.23;;;9.23;;
3875;SDS011;1953;51.222;6.624;2023-08-20T00:30:53;14.83;;;9.40;;
3875;SDS011;1953;51.222;6.624;2023-08-20T00:35:37;14.17;;;9.00;;
3875;SDS011;1953;51.222;6.624;2023-08-20T00:40:20;13.57;;;9.37;;
3875;SDS011;1953;51.222;6.624;2023-08-20T00:45:03;14.10;;;9.13;;
3875;SDS011;1953;51.222;6.624;2023-08-20T00:49:46;13.23;;;9.57;;
3875;SDS011;1953;51.222;6.624;2023-08-20T00:54:31;15.40;;;10.27;;
3875;SDS011;1953;51.222;6.624;2023-08-20T00:59:14;15.53;;;10.20;;
3875;SDS011;1953;51.222;6.624;2023-08-20T01:03:57;23.33;;;10.10;;
3875;SDS011;1953;51.222;6.624;2023-08-20T01:08:40;16.63;;;10.13;;
3875;SDS011;1953;51.222;6.624;2023-08-20T01:13:24;17.30;;;10.30;;
3875;SDS011;1953;51.222;6.624;2023-08-20T01:18:07;17.13;;;9.40;;
3875;SDS011;1953;51.222;6.624;2023-08-20T01:23:03;15.13;;;9.63;;
3875;SDS011;1953;51.222;6.624;2023-08-20T01:33:00;15.57;;;9.13;;
3875;SDS011;1953;51.222;6.624;2023-08-20T01:37:43;16.73;;;8.87;;
3875;SDS011;1953;51.222;6.624;2023-08-20T01:42:26;11.40;;;8.53;;
3875;SDS011;1953;51.222;6.624;2023-08-20T01:47:10;17.57;;;10.63;;
3875;SDS011;1953;51.222;6.624;2023-08-20T01:51:53;16.93;;;10.40;;
3875;SDS011;1953;51.222;6.624;2023-08-20T01:56:35;16.50;;;11.50;;
3875;SDS011;1953;51.222;6.624;2023-08-20T02:01:18;16.60;;;10.60;;
3875;SDS011;1953;51.222;6.624;2023-08-20T02:06:01;17.23;;;11.10;;
3875;SDS011;1953;51.222;6.624;2023-08-20T02:10:44;17.67;;;11.87;;
3875;SDS011;1953;51.222;6.624;2023-08-20T02:15:26;17.57;;;12.00;;
3875;SDS011;1953;51.222;6.624;2023-08-20T02:20:09;20.87;;;11.77;;
3875;SDS011;1953;51.222;6.624;2023-08-20T02:24:54;16.97;;;12.00;;
3875;SDS011;1953;51.222;6.624;2023-08-20T02:29:36;21.57;;;12.87;;
3875;SDS011;1953;51.222;6.624;2023-08-20T02:34:19;22.20;;;13.40;;
3875;SDS011;1953;51.222;6.624;2023-08-20T02:39:01;28.47;;;14.77;;
3875;SDS011;1953;51.222;6.624;2023-08-20T02:43:47;23.50;;;15.00;;
3875;SDS011;1953;51.222;6.624;2023-08-20T02:48:30;29.77;;;17.60;;
3875;SDS011;1953;51.222;6.624;2023-08-20T02:53:12;21.50;;;14.97;;
3875;SDS011;1953;51.222;6.624;2023-08-20T02:57:55;26.60;;;16.13;;
3875;SDS011;1953;51.222;6.624;2023-08-20T03:02:39;31.90;;;17.33;;
3875;SDS011;1953;51.222;6.624;2023-08-20T03:07:22;29.20;;;16.83;;
3875;SDS011;1953;51.222;6.624;2023-08-20T03:12:05;31.50;;;16.30;;
3875;SDS011;1953;51.222;6.624;2023-08-20T03:16:48;29.80;;;16.90;;
3875;SDS011;1953;51.222;6.624;2023-08-20T03:21:32;22.80;;;16.00;;
3875;SDS011;1953;51.222;6.624;2023-08-20T03:26:14;26.70;;;18.20;;
3875;SDS011;1953;51.222;6.624;2023-08-20T03:30:58;31.90;;;19.23;;
3875;SDS011;1953;51.222;6.624;2023-08-20T03:35:41;29.23;;;18.63;;
3875;SDS011;1953;51.222;6.624;2023-08-20T03:40:25;27.83;;;18.07;;
3875;SDS011;1953;51.222;6.624;2023-08-20T03:45:09;27.47;;;17.60;;
3875;SDS011;1953;51.222;6.624;2023-08-20T03:49:52;26.33;;;18.27;;
3875;SDS011;1953;51.222;6.624;2023-08-20T03:54:35;31.67;;;17.00;;
3875;SDS011;1953;51.222;6.624;2023-08-20T03:59:19;29.43;;;17.80;;
3875;SDS011;1953;51.222;6.624;2023-08-20T04:04:02;28.63;;;16.80;;
3875;SDS011;1953;51.222;6.624;2023-08-20T04:08:45;25.90;;;17.00;;
3875;SDS011;1953;51.222;6.624;2023-08-20T04:13:27;28.83;;;16.80;;
3875;SDS011;1953;51.222;6.624;2023-08-20T04:18:11;28.77;;;16.90;;
3875;SDS011;1953;51.222;6.624;2023-08-20T04:22:53;28.83;;;17.50;;
3875;SDS011;1953;51.222;6.624;2023-08-20T04:27:36;26.07;;;15.97;;
3875;SDS011;1953;51.222;6.624;2023-08-20T04:32:18;25.00;;;16.10;;
3875;SDS011;1953;51.222;6.624;2023-08-20T04:37:02;28.87;;;16.33;;
3875;SDS011;1953;51.222;6.624;2023-08-20T04:41:45;26.00;;;16.77;;
3875;SDS011;1953;51.222;6.624;2023-08-20T04:46:27;25.67;;;16.47;;
3875;SDS011;1953;51.222;6.624;2023-08-20T04:51:10;27.07;;;17.00;;
3875;SDS011;1953;51.222;6.624;2023-08-20T04:55:54;28.10;;;17.50;;
3875;SDS011;1953;51.222;6.624;2023-08-20T05:00:36;24.17;;;16.43;;
3875;SDS011;1953;51.222;6.624;2023-08-20T05:05:19;30.50;;;16.40;;
3875;SDS011;1953;51.222;6.624;2023-08-20T05:10:01;27.43;;;16.10;;
3875;SDS011;1953;51.222;6.624;2023-08-20T05:14:46;24.97;;;15.23;;
3875;SDS011;1953;51.222;6.624;2023-08-20T05:19:28;25.23;;;15.67;;
3875;SDS011;1953;51.222;6.624;2023-08-20T05:24:11;26.73;;;15.83;;
3875;SDS011;1953;51.222;6.624;2023-08-20T05:28:53;27.73;;;17.53;;
3875;SDS011;1953;51.222;6.624;2023-08-20T05:33:37;27.10;;;17.20;;
3875;SDS011;1953;51.222;6.624;2023-08-20T05:38:19;27.87;;;17.97;;
3875;SDS011;1953;51.222;6.624;2023-08-20T05:43:02;25.43;;;17.33;;
3875;SDS011;1953;51.222;6.624;2023-08-20T05:47:45;33.10;;;17.70;;
3875;SDS011;1953;51.222;6.624;2023-08-20T05:52:29;29.97;;;17.73;;
3875;SDS011;1953;51.222;6.624;2023-08-20T05:57:11;29.83;;;16.37;;
3875;SDS011;1953;51.222;6.624;2023-08-20T06:01:54;26.43;;;16.80;;
3875;SDS011;1953;51.222;6.624;2023-08-20T06:06:36;31.03;;;17.70;;
3875;SDS011;1953;51.222;6.624;2023-08-20T06:11:20;32.87;;;17.27;;
3875;SDS011;1953;51.222;6.624;2023-08-20T06:16:03;30.33;;;18.50;;
3875;SDS011;1953;51.222;6.624;2023-08-20T06:20:45;32.83;;;17.60;;
3875;SDS011;1953;51.222;6.624;2023-08-20T06:25:28;27.83;;;17.40;;
3875;SDS011;1953;51.222;6.624;2023-08-20T06:30:12;25.50;;;18.20;;
3875;SDS011;1953;51.222;6.624;2023-08-20T06:34:55;33.00;;;17.60;;
3875;SDS011;1953;51.222;6.624;2023-08-20T06:39:37;27.60;;;18.80;;
3875;SDS011;1953;51.222;6.624;2023-08-20T06:44:20;29.87;;;19.20;;
3875;SDS011;1953;51.222;6.624;2023-08-20T06:49:04;27.70;;;19.20;;
3875;SDS011;1953;51.222;6.624;2023-08-20T06:53:47;27.67;;;18.60;;
3875;SDS011;1953;51.222;6.624;2023-08-20T06:58:29;29.73;;;19.10;;
3875;SDS011;1953;51.222;6.624;2023-08-20T07:03:12;37.87;;;19.07;;
3875;SDS011;1953;51.222;6.624;2023-08-20T07:07:56;32.67;;;19.03;;
3875;SDS011;1953;51.222;6.624;2023-08-20T07:12:38;28.60;;;20.50;;
3875;SDS011;1953;51.222;6.624;2023-08-20T07:17:21;36.03;;;22.00;;
3875;SDS011;1953;51.222;6.624;2023-08-20T07:22:04;28.30;;;19.20;;
3875;SDS011;1953;51.222;6.624;2023-08-20T07:26:47;27.20;;;18.70;;
3875;SDS011;1953;51.222;6.624;2023-08-20T07:31:31;28.43;;;18.87;;
3875;SDS011;1953;51.222;6.624;2023-08-20T07:36:14;30.50;;;18.73;;
3875;SDS011;1953;51.222;6.624;2023-08-20T07:40:57;33.60;;;22.03;;
3875;SDS011;1953;51.222;6.624;2023-08-20T07:45:41;28.53;;;20.80;;
3875;SDS011;1953;51.222;6.624;2023-08-20T07:50:24;32.40;;;21.20;;
3875;SDS011;1953;51.222;6.624;2023-08-20T07:55:07;34.30;;;21.53;;
3875;SDS011;1953;51.222;6.624;2023-08-20T07:59:50;31.23;;;20.50;;
3875;SDS011;1953;51.222;6.624;2023-08-20T08:04:35;36.80;;;22.40;;
3875;SDS011;1953;51.222;6.624;2023-08-20T08:09:18;34.40;;;22.83;;
3875;SDS011;1953;51.222;6.624;2023-08-20T08:14:02;32.30;;;23.00;;
3875;SDS011;1953;51.222;6.624;2023-08-20T08:18:45;36.80;;;24.30;;
3875;SDS011;1953;51.222;6.624;2023-08-20T08:23:29;42.00;;;28.30;;
3875;SDS011;1953;51.222;6.624;2023-08-20T08:28:11;40.23;;;26.53;;
3875;SDS011;1953;51.222;6.624;2023-08-20T08:32:54;34.27;;;24.57;;
3875;SDS011;1953;51.222;6.624;2023-08-20T08:37:37;32.67;;;23.60;;
3875;SDS011;1953;51.222;6.624;2023-08-20T08:42:21;34.03;;;25.13;;
3875;SDS011;1953;51.222;6.624;2023-08-20T08:47:05;28.57;;;20.57;;
3875;SDS011;1953;51.222;6.624;2023-08-20T08:51:48;32.13;;;21.13;;
3875;SDS011;1953;51.222;6.624;2023-08-20T08:56:32;31.00;;;22.13;;
3875;SDS011;1953;51.222;6.624;2023-08-20T09:01:16;26.53;;;20.07;;
3875;SDS011;1953;51.222;6.624;2023-08-20T09:06:01;29.70;;;19.63;;
3875;SDS011;1953;51.222;6.624;2023-08-20T09:10:50;26.33;;;19.60;;
3875;SDS011;1953;51.222;6.624;2023-08-20T09:15:33;32.33;;;20.17;;
3875;SDS011;1953;51.222;6.624;2023-08-20T09:20:17;31.57;;;20.23;;
3875;SDS011;1953;51.222;6.624;2023-08-20T09:25:15;27.23;;;18.77;;
3875;SDS011;1953;51.222;6.624;2023-08-20T09:29:58;20.23;;;14.53;;
3875;SDS011;1953;51.222;6.624;2023-08-20T09:34:41;20.77;;;16.30;;
3875;SDS011;1953;51.222;6.624;2023-08-20T09:39:25;19.07;;;13.97;;
3875;SDS011;1953;51.222;6.624;2023-08-20T09:44:07;18.23;;;12.90;;
3875;SDS011;1953;51.222;6.624;2023-08-20T09:48:51;18.17;;;14.37;;
3875;SDS011;1953;51.222;6.624;2023-08-20T09:53:37;17.40;;;11.60;;
3875;SDS011;1953;51.222;6.624;2023-08-20T09:58:32;18.93;;;11.90;;
3875;SDS011;1953;51.222;6.624;2023-08-20T10:03:14;18.90;;;14.30;;
3875;SDS011;1953;51.222;6.624;2023-08-20T10:07:57;16.13;;;11.87;;
3875;SDS011;1953;51.222;6.624;2023-08-20T10:12:40;15.10;;;11.50;;
3875;SDS011;1953;51.222;6.624;2023-08-20T10:17:27;13.97;;;11.50;;
3875;SDS011;1953;51.222;6.624;2023-08-20T10:22:11;14.30;;;10.10;;
3875;SDS011;1953;51.222;6.624;2023-08-20T10:27:06;13.53;;;10.60;;
3875;SDS011;1953;51.222;6.624;2023-08-20T10:31:50;10.73;;;9.50;;
3875;SDS011;1953;51.222;6.624;2023-08-20T10:36:37;16.87;;;12.37;;
3875;SDS011;1953;51.222;6.624;2023-08-20T10:41:27;14.68;;;13.07;;
3875;SDS011;1953;51.222;6.624;2023-08-20T10:46:14;13.00;;;11.13;;
3875;SDS011;1953;51.222;6.624;2023-08-20T10:50:57;17.48;;;12.90;;
3875;SDS011;1953;51.222;6.624;2023-08-20T10:55:46;16.52;;;12.60;;
3875;SDS011;1953;51.222;6.624;2023-08-20T11:00:30;15.40;;;12.10;;
3875;SDS011;1953;51.222;6.624;2023-08-20T11:05:18;13.83;;;12.43;;
3875;SDS011;1953;51.222;6.624;2023-08-20T11:10:02;15.35;;;12.05;;
3875;SDS011;1953;51.222;6.624;2023-08-20T11:14:49;17.25;;;12.48;;
3875;SDS011;1953;51.222;6.624;2023-08-20T11:19:31;14.82;;;12.70;;
3875;SDS011;1953;51.222;6.624;2023-08-20T11:24:14;14.82;;;12.85;;
3875;SDS011;1953;51.222;6.624;2023-08-20T11:28:56;13.02;;;11.73;;
3875;SDS011;1953;51.222;6.624;2023-08-20T11:33:40;11.88;;;10.73;;
3875;SDS011;1953;51.222;6.624;2023-08-20T11:38:23;18.80;;;13.02;;
3875;SDS011;1953;51.222;6.624;2023-08-20T11:43:06;17.92;;;14.75;;
3875;SDS011;1953;51.222;6.624;2023-08-20T11:47:49;21.15;;;15.43;;
3875;SDS011;1953;51.222;6.624;2023-08-20T11:52:40;13.95;;;12.43;;
3875;SDS011;1953;51.222;6.624;2023-08-20T11:57:22;15.05;;;12.73;;
3875;SDS011;1953;51.222;6.624;2023-08-20T12:02:05;14.20;;;12.90;;
3875;SDS011;1953;51.222;6.624;2023-08-20T12:06:52;15.05;;;12.60;;
3875;SDS011;1953;51.222;6.624;2023-08-20T12:11:49;12.27;;;11.07;;
3875;SDS011;1953;51.222;6.624;2023-08-20T12:17:47;11.98;;;10.88;;
3875;SDS011;1953;51.222;6.624;2023-08-20T12:22:40;12.10;;;10.82;;
3875;SDS011;1953;51.222;6.624;2023-08-20T12:27:23;9.85;;;8.88;;
3875;SDS011;1953;51.222;6.624;2023-08-20T12:32:05;11.20;;;10.10;;
3875;SDS011;1953;51.222;6.624;2023-08-20T12:36:50;9.90;;;8.90;;
3875;SDS011;1953;51.222;6.624;2023-08-20T12:41:32;9.50;;;8.55;;
3875;SDS011;1953;51.222;6.624;2023-08-20T12:46:16;9.85;;;8.95;;
3875;SDS011;1953;51.222;6.624;2023-08-20T12:50:59;9.38;;;8.15;;
3875;SDS011;1953;51.222;6.624;2023-08-20T12:55:44;9.82;;;8.45;;
3875;SDS011;1953;51.222;6.624;2023-08-20T13:00:27;8.50;;;7.57;;
3875;SDS011;1953;51.222;6.624;2023-08-20T13:05:10;9.60;;;6.57;;
3875;SDS011;1953;51.222;6.624;2023-08-20T13:09:54;8.43;;;6.40;;
3875;SDS011;1953;51.222;6.624;2023-08-20T13:14:38;7.53;;;6.70;;
3875;SDS011;1953;51.222;6.624;2023-08-20T13:19:22;6.63;;;5.80;;
3875;SDS011;1953;51.222;6.624;2023-08-20T13:24:05;10.15;;;7.00;;
3875;SDS011;1953;51.222;6.624;2023-08-20T13:28:49;9.07;;;5.80;;
3875;SDS011;1953;51.222;6.624;2023-08-20T13:33:33;6.70;;;6.10;;
3875;SDS011;1953;51.222;6.624;2023-08-20T13:38:16;6.22;;;5.63;;
3875;SDS011;1953;51.222;6.624;2023-08-20T13:42:59;8.85;;;5.55;;
3875;SDS011;1953;51.222;6.624;2023-08-20T13:47:42;7.40;;;5.47;;
3875;SDS011;1953;51.222;6.624;2023-08-20T13:52:26;7.78;;;5.30;;
3875;SDS011;1953;51.222;6.624;2023-08-20T13:57:09;5.93;;;5.45;;
3875;SDS011;1953;51.222;6.624;2023-08-20T14:01:51;5.05;;;4.57;;
3875;SDS011;1953;51.222;6.624;2023-08-20T14:06:34;4.78;;;4.25;;
3875;SDS011;1953;51.222;6.624;2023-08-20T14:11:18;5.50;;;4.25;;
3875;SDS011;1953;51.222;6.624;2023-08-20T14:16:01;4.55;;;4.10;;
3875;SDS011;1953;51.222;6.624;2023-08-20T14:20:47;4.50;;;4.10;;
3875;SDS011;1953;51.222;6.624;2023-08-20T14:25:29;4.80;;;4.05;;
3875;SDS011;1953;51.222;6.624;2023-08-20T14:30:13;5.13;;;3.72;;
3875;SDS011;1953;51.222;6.624;2023-08-20T14:34:56;3.25;;;2.95;;
3875;SDS011;1953;51.222;6.624;2023-08-20T14:39:38;4.43;;;3.20;;
3875;SDS011;1953;51.222;6.624;2023-08-20T14:44:21;3.60;;;3.40;;
3875;SDS011;1953;51.222;6.624;2023-08-20T14:49:04;3.40;;;3.20;;
3875;SDS011;1953;51.222;6.624;2023-08-20T14:53:47;3.63;;;3.33;;
3875;SDS011;1953;51.222;6.624;2023-08-20T14:58:29;3.17;;;2.88;;
3875;SDS011;1953;51.222;6.624;2023-08-20T15:03:12;3.20;;;3.00;;
3875;SDS011;1953;51.222;6.624;2023-08-20T15:07:56;4.20;;;2.83;;
3875;SDS011;1953;51.222;6.624;2023-08-20T15:12:38;6.28;;;2.75;;
3875;SDS011;1953;51.222;6.624;2023-08-20T15:17:22;3.30;;;3.00;;
3875;SDS011;1953;51.222;6.624;2023-08-20T15:22:04;3.05;;;2.85;;
3875;SDS011;1953;51.222;6.624;2023-08-20T15:26:48;3.20;;;3.00;;
3875;SDS011;1953;51.222;6.624;2023-08-20T15:31:31;3.38;;;3.08;;
3875;SDS011;1953;51.222;6.624;2023-08-20T15:36:13;3.80;;;2.72;;
3875;SDS011;1953;51.222;6.624;2023-08-20T15:40:56;4.03;;;3.00;;
3875;SDS011;1953;51.222;6.624;2023-08-20T15:45:41;4.78;;;2.90;;
3875;SDS011;1953;51.222;6.624;2023-08-20T15:50:23;2.80;;;2.58;;
3875;SDS011;1953;51.222;6.624;2023-08-20T15:55:08;2.22;;;2.13;;
3875;SDS011;1953;51.222;6.624;2023-08-20T15:59:51;3.28;;;2.55;;
3875;SDS011;1953;51.222;6.624;2023-08-20T16:04:35;3.05;;;2.35;;
3875;SDS011;1953;51.222;6.624;2023-08-20T16:09:17;3.60;;;2.70;;
3875;SDS011;1953;51.222;6.624;2023-08-20T16:14:00;4.03;;;2.50;;
3875;SDS011;1953;51.222;6.624;2023-08-20T16:18:43;3.50;;;3.20;;
3875;SDS011;1953;51.222;6.624;2023-08-20T16:23:27;6.45;;;2.58;;
3875;SDS011;1953;51.222;6.624;2023-08-20T16:28:10;2.35;;;2.15;;
3875;SDS011;1953;51.222;6.624;2023-08-20T16:32:52;4.88;;;2.78;;
3875;SDS011;1953;51.222;6.624;2023-08-20T16:37:35;6.00;;;2.65;;
3875;SDS011;1953;51.222;6.624;2023-08-20T16:42:19;3.72;;;2.40;;
3875;SDS011;1953;51.222;6.624;2023-08-20T16:47:01;6.95;;;2.85;;
3875;SDS011;1953;51.222;6.624;2023-08-20T16:51:44;4.13;;;3.72;;
3875;SDS011;1953;51.222;6.624;2023-08-20T16:56:27;3.35;;;3.03;;
3875;SDS011;1953;51.222;6.624;2023-08-20T17:01:11;5.63;;;2.70;;
3875;SDS011;1953;51.222;6.624;2023-08-20T17:05:57;4.38;;;2.75;;
3875;SDS011;1953;51.222;6.624;2023-08-20T17:10:40;2.72;;;2.30;;
3875;SDS011;1953;51.222;6.624;2023-08-20T17:15:23;3.50;;;2.40;;
3875;SDS011;1953;51.222;6.624;2023-08-20T17:20:09;4.53;;;2.35;;
3875;SDS011;1953;51.222;6.624;2023-08-20T17:24:52;2.70;;;2.08;;
3875;SDS011;1953;51.222;6.624;2023-08-20T17:29:35;2.50;;;2.00;;
3875;SDS011;1953;51.222;6.624;2023-08-20T17:34:18;3.92;;;2.70;;
3875;SDS011;1953;51.222;6.624;2023-08-20T17:39:02;4.82;;;2.30;;
3875;SDS011;1953;51.222;6.624;2023-08-20T17:43:47;3.95;;;2.53;;
3875;SDS011;1953;51.222;6.624;2023-08-20T17:48:30;4.40;;;2.33;;
3875;SDS011;1953;51.222;6.624;2023-08-20T17:53:12;2.85;;;1.85;;
3875;SDS011;1953;51.222;6.624;2023-08-20T17:57:56;3.67;;;2.70;;
3875;SDS011;1953;51.222;6.624;2023-08-20T18:02:39;4.60;;;2.88;;
3875;SDS011;1953;51.222;6.624;2023-08-20T18:07:21;3.75;;;2.53;;
3875;SDS011;1953;51.222;6.624;2023-08-20T18:12:04;4.95;;;2.20;;
3875;SDS011;1953;51.222;6.624;2023-08-20T18:16:48;4.00;;;2.45;;
3875;SDS011;1953;51.222;6.624;2023-08-20T18:21:31;6.60;;;2.90;;
3875;SDS011;1953;51.222;6.624;2023-08-20T18:26:14;4.00;;;2.38;;
3875;SDS011;1953;51.222;6.624;2023-08-20T18:30:58;8.55;;;2.50;;
3875;SDS011;1953;51.222;6.624;2023-08-20T18:35:44;6.82;;;2.33;;
3875;SDS011;1953;51.222;6.624;2023-08-20T18:40:27;7.18;;;2.70;;
3875;SDS011;1953;51.222;6.624;2023-08-20T18:45:09;8.13;;;3.10;;
3875;SDS011;1953;51.222;6.624;2023-08-20T18:49:52;5.53;;;2.50;;
3875;SDS011;1953;51.222;6.624;2023-08-20T18:54:36;4.78;;;2.65;;
3875;SDS011;1953;51.222;6.624;2023-08-20T18:59:20;4.90;;;2.70;;
3875;SDS011;1953;51.222;6.624;2023-08-20T19:04:02;3.90;;;2.58;;
3875;SDS011;1953;51.222;6.624;2023-08-20T19:08:45;4.60;;;2.50;;
3875;SDS011;1953;51.222;6.624;2023-08-20T19:13:29;4.07;;;2.50;;
3875;SDS011;1953;51.222;6.624;2023-08-20T19:18:12;5.05;;;2.63;;
3875;SDS011;1953;51.222;6.624;2023-08-20T19:22:55;6.75;;;2.88;;
3875;SDS011;1953;51.222;6.624;2023-08-20T19:27:38;10.13;;;3.20;;
3875;SDS011;1953;51.222;6.624;2023-08-20T19:32:21;4.78;;;2.45;;
3875;SDS011;1953;51.222;6.624;2023-08-20T19:37:04;5.40;;;2.40;;
3875;SDS011;1953;51.222;6.624;2023-08-20T19:41:46;5.47;;;2.63;;
3875;SDS011;1953;51.222;6.624;2023-08-20T19:46:29;5.30;;;2.40;;
3875;SDS011;1953;51.222;6.624;2023-08-20T19:51:13;6.40;;;2.27;;
3875;SDS011;1953;51.222;6.624;2023-08-20T19:55:56;6.07;;;2.87;;
3875;SDS011;1953;51.222;6.624;2023-08-20T20:00:39;6.63;;;2.50;;
3875;SDS011;1953;51.222;6.624;2023-08-20T20:05:23;4.27;;;2.30;;
3875;SDS011;1953;51.222;6.624;2023-08-20T20:10:08;7.93;;;2.53;;
3875;SDS011;1953;51.222;6.624;2023-08-20T20:14:52;9.60;;;2.90;;
3875;SDS011;1953;51.222;6.624;2023-08-20T20:19:34;7.50;;;2.50;;
3875;SDS011;1953;51.222;6.624;2023-08-20T20:24:17;5.60;;;2.63;;
3875;SDS011;1953;51.222;6.624;2023-08-20T20:29:00;7.97;;;2.50;;
3875;SDS011;1953;51.222;6.624;2023-08-20T20:33:43;4.43;;;2.60;;
3875;SDS011;1953;51.222;6.624;2023-08-20T20:38:26;4.37;;;2.73;;
3875;SDS011;1953;51.222;6.624;2023-08-20T20:43:09;7.80;;;2.63;;
3875;SDS011;1953;51.222;6.624;2023-08-20T20:47:53;5.50;;;2.97;;
3875;SDS011;1953;51.222;6.624;2023-08-20T20:52:35;4.50;;;2.50;;
3875;SDS011;1953;51.222;6.624;2023-08-20T20:57:18;6.80;;;2.43;;
3875;SDS011;1953;51.222;6.624;2023-08-20T21:02:01;10.00;;;3.00;;
3875;SDS011;1953;51.222;6.624;2023-08-20T21:06:45;6.30;;;2.50;;
3875;SDS011;1953;51.222;6.624;2023-08-20T21:11:27;6.77;;;2.80;;
3875;SDS011;1953;51.222;6.624;2023-08-20T21:16:10;6.13;;;2.60;;
3875;SDS011;1953;51.222;6.624;2023-08-20T21:20:52;5.83;;;2.67;;
3875;SDS011;1953;51.222;6.624;2023-08-20T21:25:37;6.03;;;2.60;;
3875;SDS011;1953;51.222;6.624;2023-08-20T21:30:19;4.03;;;2.47;;
3875;SDS011;1953;51.222;6.624;2023-08-20T21:35:02;4.73;;;2.87;;
3875;SDS011;1953;51.222;6.624;2023-08-20T21:39:45;7.03;;;2.97;;
3875;SDS011;1953;51.222;6.624;2023-08-20T21:44:29;7.80;;;3.40;;
3875;SDS011;1953;51.222;6.624;2023-08-20T21:49:12;7.47;;;2.80;;
3875;SDS011;1953;51.222;6.624;2023-08-20T21:53:58;7.73;;;2.87;;
3875;SDS011;1953;51.222;6.624;2023-08-20T21:58:40;8.43;;;2.77;;
3875;SDS011;1953;51.222;6.624;2023-08-20T22:03:24;9.00;;;2.93;;
3875;SDS011;1953;51.222;6.624;2023-08-20T22:08:06;8.00;;;2.70;;
3875;SDS011;1953;51.222;6.624;2023-08-20T22:12:49;7.00;;;3.17;;
3875;SDS011;1953;51.222;6.624;2023-08-20T22:17:32;6.60;;;3.50;;
3875;SDS011;1953;51.222;6.624;2023-08-20T22:22:16;6.27;;;3.10;;
3875;SDS011;1953;51.222;6.624;2023-08-20T22:26:59;4.40;;;2.57;;
3875;SDS011;1953;51.222;6.624;2023-08-20T22:31:41;5.17;;;2.43;;
3875;SDS011;1953;51.222;6.624;2023-08-20T22:36:24;9.13;;;3.10;;
3875;SDS011;1953;51.222;6.624;2023-08-20T22:41:08;5.40;;;2.60;;
3875;SDS011;1953;51.222;6.624;2023-08-20T22:45:50;6.00;;;3.00;;
3875;SDS011;1953;51.222;6.624;2023-08-20T22:50:33;6.13;;;3.23;;
3875;SDS011;1953;51.222;6.624;2023-08-20T22:55:16;5.40;;;2.43;;
3875;SDS011;1953;51.222;6.624;2023-08-20T23:00:00;10.23;;;2.83;;
3875;SDS011;1953;51.222;6.624;2023-08-20T23:04:44;6.43;;;2.83;;
3875;SDS011;1953;51.222;6.624;2023-08-20T23:09:26;5.93;;;2.97;;
3875;SDS011;1953;51.222;6.624;2023-08-20T23:14:09;9.70;;;3.37;;
3875;SDS011;1953;51.222;6.624;2023-08-20T23:18:53;13.07;;;3.80;;
3875;SDS011;1953;51.222;6.624;2023-08-20T23:23:36;5.30;;;3.10;;
3875;SDS011;1953;51.222;6.624;2023-08-20T23:28:18;6.50;;;2.97;;
3875;SDS011;1953;51.222;6.624;2023-08-20T23:33:02;7.50;;;3.70;;
3875;SDS011;1953;51.222;6.624;2023-08-20T23:37:46;7.50;;;3.80;;
3875;SDS011;1953;51.222;6.624;2023-08-20T23:42:29;9.13;;;4.30;;
3875;SDS011;1953;51.222;6.624;2023-08-20T23:47:11;7.53;;;4.20;;
3875;SDS011;1953;51.222;6.624;2023-08-20T23:51:54;8.73;;;4.00;;
3875;SDS011;1953;51.222;6.624;2023-08-20T23:56:37;8.50;;;4.47;;
